Time;durP1;ratioP1;P1;durP2;ratioP2;P2;SDS_P1;SDS_P2;PMS_P1;PMS_P2;Temp;Humidity;BMP_temperature;BMP_pressure;BME280_temperature;BME280_humidity;BME280_pressure;Samples;Min_cycle;Max_cycle;Signal;HPM_P1;HPM_P2
2022/06/05 00:00:18;;;;;;;0.70;0.52;;;14.70;71.70;;;;;;5015367;28;20411;-58
2022/06/05 00:02:51;;;;;;;;;;;14.80;71.20;;;;;;5020754;28;20033;-57
2022/06/05 00:05:32;;;;;;;1.75;1.13;;;14.90;70.90;;;;;;5020927;28;20035;-58
2022/06/05 00:08:30;;;;;;;0.88;0.30;;;15.10;69.60;;;;;;5015961;28;20161;-58
2022/06/05 00:10:59;;;;;;;1.98;0.40;;;15.20;69.30;;;;;;5017022;28;20034;-57
2022/06/05 00:13:52;;;;;;;3.03;0.80;;;15.20;69.20;;;;;;4992343;28;20114;-58
2022/06/05 00:16:26;;;;;;;6.00;0.57;;;15.20;69.10;;;;;;5013800;28;20026;-58
2022/06/05 00:18:54;;;;;;;1.58;0.50;;;15.30;69.30;;;;;;4994378;28;20026;-58
2022/06/05 00:21:21;;;;;;;2.00;0.60;;;15.30;68.50;;;;;;5003378;28;20115;-59
2022/06/05 00:23:50;;;;;;;2.75;0.40;;;15.30;68.30;;;;;;5008743;28;20030;-58
2022/06/05 00:26:22;;;;;;;0.50;0.40;;;15.30;67.80;;;;;;5028276;28;20432;-58
2022/06/05 00:29:13;;;;;;;0.93;0.40;;;15.40;68.10;;;;;;5023251;28;20040;-57
2022/06/05 00:31:49;;;;;;;1.45;0.40;;;15.40;68.10;;;;;;4999777;28;20452;-58
2022/06/05 00:34:17;;;;;;;2.47;0.75;;;15.50;67.50;;;;;;5016270;28;20029;-58
2022/06/05 00:37:01;;;;;;;0.65;0.40;;;15.60;67.50;;;;;;5011281;28;20029;-58
2022/06/05 00:39:43;;;;;;;0.98;0.60;;;15.70;66.50;;;;;;5015463;28;20025;-58
2022/06/05 00:42:16;;;;;;;3.25;0.50;;;15.80;67.10;;;;;;5014759;28;20112;-58
2022/06/05 00:44:56;;;;;;;1.80;0.50;;;15.90;66.40;;;;;;5019226;28;20029;-58
2022/06/05 00:47:30;;;;;;;1.65;0.60;;;16.10;68.10;;;;;;5023918;28;20061;-56
2022/06/05 00:50:14;;;;;;;1.50;0.55;;;16.30;65.40;;;;;;5013425;28;20018;-58
2022/06/05 00:52:46;;;;;;;2.50;0.50;;;16.50;65.20;;;;;;5012330;28;20117;-57
2022/06/05 00:55:14;;;;;;;0.60;0.30;;;16.60;63.90;;;;;;5005257;28;20022;-57
2022/06/05 00:57:42;;;;;;;0.95;0.40;;;16.90;62.10;;;;;;5013587;28;20029;-57
2022/06/05 01:00:18;;;;;;;0.30;0.30;;;16.90;62.10;;;;;;5010489;28;20034;-59
2022/06/05 01:02:48;;;;;;;1.08;0.45;;;17.00;62.40;;;;;;5012705;28;20034;-61
2022/06/05 01:05:16;;;;;;;4.40;0.47;;;17.00;62.00;;;;;;5017408;28;20422;-60
2022/06/05 01:07:44;;;;;;;2.00;0.45;;;16.90;62.00;;;;;;4973656;28;20186;-60
2022/06/05 01:10:12;;;;;;;1.17;0.50;;;16.90;61.70;;;;;;5015774;28;20058;-65
2022/06/05 01:13:00;;;;;;;1.58;0.47;;;17.00;63.30;;;;;;5006777;28;20367;-61
2022/06/05 01:15:49;;;;;;;1.27;0.40;;;17.10;62.80;;;;;;5011818;28;20026;-60
2022/06/05 01:18:16;;;;;;;5.22;0.73;;;17.20;61.80;;;;;;5008059;28;20149;-62
2022/06/05 01:21:08;;;;;;;1.90;0.65;;;17.20;61.10;;;;;;4999683;28;20038;-61
2022/06/05 01:23:52;;;;;;;0.80;0.52;;;17.20;60.80;;;;;;4995486;28;20026;-62
2022/06/05 01:26:34;;;;;;;1.70;0.30;;;17.30;61.10;;;;;;4997658;28;20026;-61
2022/06/05 01:29:15;;;;;;;0.60;0.60;;;17.40;59.80;;;;;;5010383;28;20041;-61
2022/06/05 01:32:12;;;;;;;0.60;0.40;;;17.50;60.10;;;;;;4990281;28;20065;-61
2022/06/05 01:34:47;;;;;;;1.77;0.60;;;17.70;60.60;;;;;;4998786;28;20092;-61
2022/06/05 01:37:20;;;;;;;2.35;1.00;;;17.80;59.60;;;;;;5028503;28;20046;-61
2022/06/05 01:40:08;;;;;;;2.90;1.10;;;18.00;59.30;;;;;;5023621;28;20455;-61
2022/06/05 01:42:38;;;;;;;1.33;0.60;;;18.10;57.10;;;;;;5029405;28;20032;-62
2022/06/05 01:45:18;;;;;;;4.28;0.90;;;18.20;55.50;;;;;;5024102;28;20617;-61
2022/06/05 01:47:52;;;;;;;1.60;0.80;;;18.40;55.70;;;;;;5009899;28;20059;-60
2022/06/05 01:50:44;;;;;;;2.17;0.80;;;18.50;52.60;;;;;;5012789;28;20502;-61
2022/06/05 01:53:29;;;;;;;5.30;0.93;;;18.50;53.10;;;;;;4989878;28;20080;-59
2022/06/05 01:56:15;;;;;;;2.80;0.77;;;18.30;52.90;;;;;;5012502;28;20030;-60
2022/06/05 01:59:02;;;;;;;2.65;1.08;;;18.30;52.90;;;;;;5007874;28;20596;-60
2022/06/05 02:01:42;;;;;;;1.77;0.50;;;18.20;52.50;;;;;;5002873;28;20048;-60
2022/06/05 02:04:30;;;;;;;1.30;0.80;;;18.20;51.20;;;;;;5004297;28;20076;-60
2022/06/05 02:07:16;;;;;;;3.35;1.00;;;18.30;52.20;;;;;;5013699;28;20412;-60
2022/06/05 02:09:56;;;;;;;1.35;0.70;;;18.30;52.10;;;;;;4972094;28;20490;-61
2022/06/05 02:12:23;;;;;;;1.95;0.80;;;18.40;50.90;;;;;;4989627;28;20105;-62
2022/06/05 02:14:51;;;;;;;1.27;0.70;;;18.30;51.80;;;;;;5010570;28;20025;-60
2022/06/05 02:17:19;;;;;;;1.73;0.40;;;18.20;51.20;;;;;;5018651;28;20022;-59
2022/06/05 02:19:47;;;;;;;2.58;0.52;;;18.20;51.90;;;;;;5026667;28;20026;-59
2022/06/05 02:22:23;;;;;;;2.30;0.60;;;18.20;51.70;;;;;;5014138;28;20105;-61
2022/06/05 02:24:51;;;;;;;0.57;0.47;;;18.30;52.80;;;;;;5008524;28;20092;-62
2022/06/05 02:27:22;;;;;;;1.88;0.47;;;18.40;51.90;;;;;;4991508;28;20034;-61
2022/06/05 02:29:50;;;;;;;1.25;0.50;;;18.50;52.10;;;;;;5016110;28;20076;-63
2022/06/05 02:32:54;;;;;;;0.80;0.47;;;18.80;51.30;;;;;;5014158;28;20034;-62
2022/06/05 02:35:38;;;;;;;1.30;0.40;;;18.90;50.30;;;;;;5003032;28;20038;-63
2022/06/05 02:38:11;;;;;;;0.87;0.60;;;19.00;49.80;;;;;;5025486;28;20029;-60
2022/06/05 02:40:59;;;;;;;1.33;0.50;;;19.00;49.90;;;;;;5013919;28;20041;-60
2022/06/05 02:43:26;;;;;;;0.75;0.40;;;18.90;49.70;;;;;;5021493;28;20057;-60
2022/06/05 02:46:11;;;;;;;1.33;0.65;;;18.80;50.20;;;;;;5018559;28;20422;-61
2022/06/05 02:48:46;;;;;;;2.05;0.38;;;18.60;49.70;;;;;;4995808;28;20050;-61
2022/06/05 02:51:25;;;;;;;1.33;0.28;;;18.30;50.20;;;;;;4991356;28;20030;-61
2022/06/05 02:53:58;;;;;;;0.95;0.50;;;18.20;51.50;;;;;;4998292;28;20030;-63
2022/06/05 02:56:27;;;;;;;1.40;0.70;;;18.10;52.90;;;;;;5022817;28;20084;-61
2022/06/05 02:58:57;;;;;;;0.80;0.50;;;18.10;52.90;;;;;;5024034;28;20074;-61
2022/06/05 03:04:09;;;;;;;1.77;0.70;;;18.30;52.80;;;;;;5011648;28;20056;-64
2022/06/05 03:06:41;;;;;;;2.72;0.45;;;18.20;51.90;;;;;;5007088;28;20411;-62
2022/06/05 03:09:10;;;;;;;0.90;0.30;;;18.10;52.30;;;;;;5008802;28;20063;-66
2022/06/05 03:11:37;;;;;;;4.80;0.63;;;18.00;52.10;;;;;;4987293;28;20026;-64
2022/06/05 03:14:05;;;;;;;2.45;0.60;;;17.90;52.60;;;;;;5013520;28;20056;-63
2022/06/05 03:16:34;;;;;;;1.15;0.50;;;17.90;53.90;;;;;;5015086;28;20030;-63
2022/06/05 03:19:02;;;;;;;1.58;0.60;;;17.90;53.30;;;;;;5005880;28;20522;-62
2022/06/05 03:21:37;;;;;;;2.63;0.30;;;17.90;53.50;;;;;;5008648;28;20026;-62
2022/06/05 03:24:06;;;;;;;0.68;0.45;;;17.90;52.30;;;;;;5005858;28;20625;-62
2022/06/05 03:26:34;;;;;;;0.22;0.22;;;18.00;52.80;;;;;;5001262;28;20558;-63
2022/06/05 03:29:03;;;;;;;0.30;0.30;;;18.10;52.30;;;;;;5006491;28;20026;-62
2022/06/05 03:31:30;;;;;;;4.43;0.47;;;18.20;52.30;;;;;;5003221;28;20033;-65
2022/06/05 03:33:57;;;;;;;0.77;0.50;;;18.20;52.30;;;;;;5004537;28;20022;-64
2022/06/05 03:36:25;;;;;;;1.40;0.43;;;18.30;52.50;;;;;;5008136;28;20049;-62
2022/06/05 03:38:53;;;;;;;2.05;0.50;;;18.30;51.50;;;;;;4994570;28;20391;-63
2022/06/05 03:41:20;;;;;;;0.57;0.30;;;18.40;50.50;;;;;;5007269;28;20604;-62
2022/06/05 03:43:48;;;;;;;1.50;0.52;;;18.40;50.30;;;;;;5009145;28;20025;-61
2022/06/05 03:46:16;;;;;;;1.08;0.30;;;18.30;49.50;;;;;;5010519;28;20148;-65
2022/06/05 03:48:44;;;;;;;2.80;0.43;;;18.40;51.00;;;;;;5010209;28;20115;-63
2022/06/05 03:51:21;;;;;;;1.27;0.60;;;18.40;51.60;;;;;;5010619;28;20493;-62
2022/06/05 03:53:49;;;;;;;2.25;0.70;;;18.30;51.60;;;;;;5009826;28;20072;-61
2022/06/05 03:56:19;;;;;;;1.10;0.47;;;18.20;50.80;;;;;;5010129;28;20105;-63
2022/06/05 03:58:47;;;;;;;1.08;0.60;;;18.20;51.60;;;;;;5011728;28;20029;-64
2022/06/05 04:01:18;;;;;;;1.73;0.60;;;18.10;51.60;;;;;;5011760;28;20052;-63
2022/06/05 04:03:46;;;;;;;1.45;0.50;;;18.00;52.30;;;;;;5011646;28;20128;-59
2022/06/05 04:06:15;;;;;;;1.02;0.50;;;18.00;51.90;;;;;;5011350;28;20018;-59
2022/06/05 04:08:42;;;;;;;1.20;0.60;;;17.90;51.80;;;;;;5010305;28;20030;-59
2022/06/05 04:11:12;;;;;;;1.55;0.50;;;17.90;52.10;;;;;;5011983;28;20014;-60
2022/06/05 04:13:40;;;;;;;1.48;0.68;;;17.80;52.10;;;;;;5009536;28;20605;-60
2022/06/05 04:16:12;;;;;;;4.43;0.88;;;17.80;52.70;;;;;;5012618;28;20099;-61
2022/06/05 04:18:39;;;;;;;1.38;0.63;;;17.70;52.10;;;;;;5011953;28;20132;-60
2022/06/05 04:21:12;;;;;;;0.43;0.43;;;17.70;52.60;;;;;;5011522;28;20025;-60
2022/06/05 04:23:40;;;;;;;0.75;0.40;;;17.70;52.90;;;;;;5011428;28;20033;-61
2022/06/05 04:26:15;;;;;;;1.25;0.50;;;17.60;52.70;;;;;;5011367;28;20386;-60
2022/06/05 04:28:42;;;;;;;0.93;0.40;;;17.60;53.10;;;;;;5008920;28;20379;-59
2022/06/05 04:31:22;;;;;;;0.80;0.40;;;17.50;52.90;;;;;;5010610;28;20037;-61
2022/06/05 04:33:51;;;;;;;0.75;0.50;;;17.50;53.10;;;;;;5016239;28;20026;-61
2022/06/05 04:36:19;;;;;;;3.20;0.45;;;17.50;53.10;;;;;;5010492;28;20100;-63
2022/06/05 04:38:47;;;;;;;4.28;0.57;;;17.50;53.80;;;;;;4991692;28;20125;-63
2022/06/05 04:41:15;;;;;;;3.38;0.57;;;17.50;53.70;;;;;;5008884;28;20118;-61
2022/06/05 04:43:42;;;;;;;0.93;0.52;;;17.40;52.90;;;;;;5009029;28;20350;-61
2022/06/05 04:46:10;;;;;;;2.90;0.50;;;17.40;54.30;;;;;;5009264;28;20022;-61
2022/06/05 04:48:37;;;;;;;1.30;0.60;;;17.30;54.20;;;;;;5008865;28;20046;-62
2022/06/05 04:51:06;;;;;;;1.33;0.60;;;17.20;52.60;;;;;;5008903;28;20068;-62
2022/06/05 04:53:34;;;;;;;1.65;0.60;;;17.10;53.20;;;;;;5005576;28;20033;-63
2022/06/05 04:56:10;;;;;;;0.93;0.60;;;17.00;52.70;;;;;;4990363;28;20026;-63
2022/06/05 04:58:37;;;;;;;0.77;0.40;;;17.00;53.80;;;;;;5005317;28;20524;-63
2022/06/05 05:01:26;;;;;;;1.60;0.90;;;16.90;53.80;;;;;;5008259;28;20607;-62
2022/06/05 05:03:59;;;;;;;0.80;0.45;;;16.90;53.80;;;;;;5008829;28;20455;-63
2022/06/05 05:06:30;;;;;;;1.27;0.60;;;16.90;54.50;;;;;;5008680;28;21293;-62
2022/06/05 05:08:58;;;;;;;1.50;0.88;;;16.80;53.50;;;;;;5009318;28;20034;-63
2022/06/05 05:11:26;;;;;;;2.60;0.82;;;16.70;53.40;;;;;;4992332;28;20030;-62
2022/06/05 05:13:57;;;;;;;1.58;0.60;;;16.70;53.10;;;;;;5010371;28;20387;-63
2022/06/05 05:16:25;;;;;;;1.73;1.10;;;16.70;53.40;;;;;;5010530;28;20328;-63
2022/06/05 05:18:54;;;;;;;2.80;0.68;;;16.60;53.30;;;;;;5010418;28;20025;-63
2022/06/05 05:21:23;;;;;;;1.10;0.70;;;16.60;54.00;;;;;;5010523;28;20049;-64
2022/06/05 05:23:51;;;;;;;2.67;1.00;;;16.50;54.60;;;;;;5010817;28;20109;-61
2022/06/05 05:26:24;;;;;;;1.65;1.10;;;16.50;54.20;;;;;;5009714;28;20053;-61
2022/06/05 05:28:52;;;;;;;1.55;0.90;;;16.40;54.60;;;;;;5009773;28;20070;-61
2022/06/05 05:31:23;;;;;;;1.48;0.80;;;16.30;55.60;;;;;;4991495;28;20024;-60
2022/06/05 05:33:51;;;;;;;2.03;0.80;;;16.20;55.80;;;;;;5009353;28;20046;-65
2022/06/05 05:36:20;;;;;;;1.60;0.60;;;16.10;56.00;;;;;;5008871;28;20515;-61
2022/06/05 05:44:20;;;;;;;2.63;0.85;;;15.90;57.20;;;;;;5007598;28;20048;-60
2022/06/05 05:46:48;;;;;;;1.38;0.77;;;15.90;58.00;;;;;;5007544;28;20022;-61
2022/06/05 05:49:16;;;;;;;2.55;0.90;;;15.90;58.40;;;;;;5006458;28;20045;-61
2022/06/05 05:51:43;;;;;;;2.40;0.98;;;15.90;59.00;;;;;;5007136;28;20014;-61
2022/06/05 05:54:12;;;;;;;1.58;0.68;;;15.80;60.30;;;;;;5006918;28;20029;-60
2022/06/05 05:56:40;;;;;;;1.60;0.90;;;15.70;60.30;;;;;;5007037;28;20026;-61
2022/06/05 05:59:07;;;;;;;2.15;1.15;;;15.70;60.50;;;;;;5004040;28;20445;-61
2022/06/05 06:01:35;;;;;;;3.85;0.80;;;15.60;61.30;;;;;;5007293;28;21749;-61
2022/06/05 06:04:02;;;;;;;2.13;0.70;;;15.60;62.30;;;;;;5005345;28;20141;-60
2022/06/05 06:06:35;;;;;;;1.45;0.75;;;15.50;62.90;;;;;;5005306;28;20029;-59
2022/06/05 06:09:04;;;;;;;1.52;0.85;;;15.40;63.20;;;;;;5006721;28;20125;-61
2022/06/05 06:11:32;;;;;;;2.95;1.20;;;15.30;63.20;;;;;;5006741;28;20028;-61
2022/06/05 06:13:59;;;;;;;2.92;1.27;;;15.20;63.90;;;;;;5000217;28;20398;-61
2022/06/05 06:16:27;;;;;;;2.60;1.20;;;15.20;63.90;;;;;;5003733;28;20490;-61
2022/06/05 06:18:56;;;;;;;3.40;0.95;;;15.10;64.20;;;;;;5004533;28;20040;-61
2022/06/05 06:21:24;;;;;;;1.60;0.70;;;15.00;64.60;;;;;;5001270;28;20024;-61
2022/06/05 06:23:55;;;;;;;2.30;1.00;;;14.90;63.70;;;;;;5004735;28;20045;-61
2022/06/05 06:26:22;;;;;;;3.95;1.20;;;14.80;63.70;;;;;;5003901;28;20021;-61
2022/06/05 06:28:50;;;;;;;1.90;0.90;;;14.70;63.80;;;;;;5004666;28;20044;-61
2022/06/05 06:31:18;;;;;;;3.53;1.10;;;14.60;63.80;;;;;;5004833;28;20181;-61
2022/06/05 06:33:48;;;;;;;2.25;1.33;;;14.60;64.00;;;;;;5001686;28;20473;-61
2022/06/05 06:36:17;;;;;;;5.10;2.30;;;14.50;64.20;;;;;;5003982;28;20025;-61
2022/06/05 06:38:44;;;;;;;3.50;1.75;;;14.30;64.60;;;;;;5003889;28;20037;-62
2022/06/05 06:41:14;;;;;;;4.18;2.00;;;14.20;64.90;;;;;;5004522;28;20459;-60
2022/06/05 06:43:43;;;;;;;2.53;1.10;;;14.10;64.80;;;;;;5004459;28;20493;-61
2022/06/05 06:46:11;;;;;;;2.15;1.08;;;14.10;64.70;;;;;;5005450;28;20053;-59
2022/06/05 06:48:40;;;;;;;3.05;0.90;;;13.90;65.40;;;;;;5005882;28;20065;-61
2022/06/05 06:51:08;;;;;;;2.75;0.95;;;13.80;65.50;;;;;;5003396;28;20026;-63
2022/06/05 06:53:37;;;;;;;2.80;0.93;;;13.70;66.00;;;;;;5004769;28;20038;-59
2022/06/05 06:56:13;;;;;;;2.13;0.90;;;13.50;66.90;;;;;;5004896;28;20380;-60
2022/06/05 06:58:42;;;;;;;7.60;1.40;;;13.40;67.50;;;;;;5004909;28;20034;-60
2022/06/05 07:01:10;;;;;;;1.77;0.95;;;13.30;67.90;;;;;;5011204;28;20798;-60
2022/06/05 07:03:37;;;;;;;2.88;1.17;;;13.30;69.40;;;;;;5001755;28;20487;-60
2022/06/05 07:06:08;;;;;;;2.78;1.20;;;13.20;68.80;;;;;;5003414;28;20026;-61
2022/06/05 07:08:35;;;;;;;2.50;1.10;;;13.20;68.90;;;;;;5004167;28;20042;-60
2022/06/05 07:11:06;;;;;;;2.10;1.00;;;13.10;69.70;;;;;;4987400;28;20072;-62
2022/06/05 07:13:34;;;;;;;2.83;0.60;;;13.00;69.90;;;;;;4986514;28;20062;-61
2022/06/05 07:16:01;;;;;;;1.42;0.80;;;12.90;70.30;;;;;;5002662;28;20487;-62
2022/06/05 07:18:28;;;;;;;1.67;0.77;;;12.90;70.00;;;;;;5000395;28;20034;-61
2022/06/05 07:20:55;;;;;;;2.65;0.85;;;12.90;70.10;;;;;;5001509;28;20795;-61
2022/06/05 07:23:23;;;;;;;3.05;1.00;;;12.90;70.10;;;;;;4999034;28;20792;-60
2022/06/05 07:25:52;;;;;;;3.53;0.90;;;12.80;70.50;;;;;;5005092;28;20108;-61
2022/06/05 07:28:20;;;;;;;2.03;0.85;;;12.70;71.00;;;;;;5007324;28;20038;-61
2022/06/05 07:30:49;;;;;;;2.35;0.93;;;12.60;70.80;;;;;;5006479;28;20733;-61
2022/06/05 07:33:17;;;;;;;2.90;0.70;;;12.60;71.50;;;;;;5003832;28;20459;-61
2022/06/05 07:35:44;;;;;;;1.77;1.00;;;12.60;71.50;;;;;;5005233;28;20057;-61
2022/06/05 07:38:12;;;;;;;1.38;1.00;;;12.50;71.70;;;;;;5003805;28;20038;-61
2022/06/05 07:40:42;;;;;;;2.35;0.60;;;12.40;72.00;;;;;;5004732;28;20562;-62
2022/06/05 07:43:10;;;;;;;1.42;0.90;;;12.40;72.20;;;;;;4972536;28;20081;-62
2022/06/05 07:45:38;;;;;;;1.73;1.00;;;12.40;72.30;;;;;;5002598;28;20091;-62
2022/06/05 07:48:06;;;;;;;2.60;0.88;;;12.30;72.50;;;;;;4975386;28;20050;-60
2022/06/05 07:50:33;;;;;;;2.22;1.00;;;12.30;72.60;;;;;;5004971;28;20022;-61
2022/06/05 07:55:46;;;;;;;2.67;1.30;;;12.20;72.90;;;;;;5007060;28;20041;-60
2022/06/05 07:58:14;;;;;;;6.55;1.35;;;12.10;73.30;;;;;;5006984;28;20080;-60
2022/06/05 08:00:42;;;;;;;2.35;1.00;;;12.10;73.40;;;;;;5006397;28;20192;-60
2022/06/05 08:03:09;;;;;;;1.85;0.88;;;11.90;73.80;;;;;;5006974;28;20077;-61
2022/06/05 08:05:36;;;;;;;1.63;1.30;;;11.90;74.50;;;;;;5007123;28;20068;-61
2022/06/05 08:08:04;;;;;;;2.97;1.30;;;11.70;73.80;;;;;;4991791;28;20041;-61
2022/06/05 08:10:32;;;;;;;3.95;0.90;;;11.70;74.30;;;;;;5008628;28;20335;-61
2022/06/05 08:13:00;;;;;;;1.40;1.00;;;11.60;74.90;;;;;;5008643;28;20390;-61
2022/06/05 08:15:28;;;;;;;2.97;0.70;;;11.70;74.50;;;;;;4995528;28;20042;-61
2022/06/05 08:17:55;;;;;;;2.70;0.57;;;11.70;74.60;;;;;;5006705;28;20800;-61
2022/06/05 08:20:23;;;;;;;1.70;0.88;;;11.60;74.80;;;;;;5006703;28;20026;-61
2022/06/05 08:22:50;;;;;;;4.53;0.93;;;11.50;74.40;;;;;;5007100;28;20065;-61
2022/06/05 08:25:19;;;;;;;2.10;0.98;;;11.50;74.90;;;;;;5006883;28;20133;-61
2022/06/05 08:27:48;;;;;;;1.73;0.90;;;11.60;75.10;;;;;;5006566;28;20045;-60
2022/06/05 08:30:15;;;;;;;1.92;1.10;;;11.50;74.50;;;;;;5010437;28;20018;-61
2022/06/05 08:32:42;;;;;;;2.75;1.10;;;11.50;74.50;;;;;;5010100;28;20033;-61
2022/06/05 08:35:10;;;;;;;1.83;1.15;;;11.40;75.00;;;;;;5010296;28;20057;-61
2022/06/05 08:43:44;;;;;;;1.40;0.70;;;11.30;75.40;;;;;;5010276;28;20041;-61
2022/06/05 08:46:24;;;;;;;2.80;0.75;;;11.30;75.30;;;;;;4990132;28;20104;-61
2022/06/05 08:49:07;;;;;;;3.38;0.88;;;11.20;75.80;;;;;;5005274;28;20085;-61
2022/06/05 08:52:06;;;;;;;0.95;0.60;;;11.10;75.30;;;;;;5007628;28;20089;-60
2022/06/05 08:54:56;;;;;;;2.25;1.20;;;11.10;76.10;;;;;;4975590;28;20052;-61
2022/06/05 08:57:43;;;;;;;1.30;0.60;;;11.10;75.70;;;;;;5006422;28;20028;-60
2022/06/05 09:00:21;;;;;;;0.98;0.50;;;11.10;75.80;;;;;;5006781;28;20088;-60
2022/06/05 09:02:58;;;;;;;2.28;0.68;;;11.10;75.60;;;;;;5009270;28;20026;-60
2022/06/05 09:05:41;;;;;;;1.17;0.40;;;11.10;76.00;;;;;;5008620;28;20030;-60
2022/06/05 09:08:15;;;;;;;1.27;0.73;;;11.00;76.10;;;;;;5005675;28;20030;-61
2022/06/05 09:10:48;;;;;;;1.88;0.88;;;11.00;76.20;;;;;;5008534;28;20038;-60
2022/06/05 09:13:30;;;;;;;1.20;0.70;;;11.00;76.20;;;;;;4994747;28;20101;-62
2022/06/05 09:16:05;;;;;;;2.40;1.08;;;11.10;75.30;;;;;;5009418;28;20072;-61
2022/06/05 09:18:44;;;;;;;1.85;0.95;;;11.10;75.60;;;;;;4998586;28;20101;-61
2022/06/05 09:21:44;;;;;;;1.33;0.77;;;10.90;76.10;;;;;;4988488;28;20060;-61
2022/06/05 09:24:29;;;;;;;2.45;0.60;;;10.90;76.30;;;;;;5009230;28;20079;-61
2022/06/05 09:27:22;;;;;;;0.90;0.55;;;10.90;76.80;;;;;;5005558;28;20026;-58
2022/06/05 09:30:28;;;;;;;1.38;0.68;;;10.80;76.30;;;;;;5009549;28;20037;-60
2022/06/05 09:33:01;;;;;;;0.85;0.47;;;10.90;76.90;;;;;;4938878;29;20077;-60
2022/06/05 09:35:47;;;;;;;1.23;0.55;;;10.80;76.80;;;;;;4947648;29;20049;-60
2022/06/05 09:38:29;;;;;;;2.25;0.80;;;10.70;77.50;;;;;;4971392;28;20045;-60
2022/06/05 09:41:15;;;;;;;1.27;0.65;;;10.70;77.50;;;;;;5008694;28;20036;-60
2022/06/05 09:44:07;;;;;;;1.38;0.70;;;10.70;77.70;;;;;;5009091;28;20286;-60
2022/06/05 09:46:54;;;;;;;1.10;0.43;;;10.60;77.80;;;;;;5009100;28;20060;-60
2022/06/05 09:49:43;;;;;;;3.15;0.70;;;10.60;78.00;;;;;;4971672;28;20055;-62
2022/06/05 09:52:20;;;;;;;3.55;1.00;;;10.50;77.80;;;;;;4970024;28;20023;-60
2022/06/05 09:55:06;;;;;;;2.47;1.40;;;10.60;77.70;;;;;;4970171;28;20030;-60
2022/06/05 10:01:00;;;;;;;1.48;0.90;;;10.60;78.30;;;;;;4970151;28;20054;-60
2022/06/05 10:03:42;;;;;;;1.70;0.88;;;10.50;78.10;;;;;;4967188;28;20023;-59
2022/06/05 10:06:17;;;;;;;1.83;0.77;;;10.60;77.80;;;;;;4979044;28;20050;-60
2022/06/05 10:08:54;;;;;;;2.78;0.88;;;10.40;78.20;;;;;;5000793;28;20042;-59
2022/06/05 10:11:38;;;;;;;1.80;0.75;;;10.40;78.80;;;;;;4968038;28;20041;-59
2022/06/05 10:14:28;;;;;;;3.85;0.70;;;10.40;78.90;;;;;;4967858;28;20040;-59
2022/06/05 10:17:17;;;;;;;0.70;0.40;;;10.40;78.20;;;;;;4974250;28;20031;-59
2022/06/05 10:20:05;;;;;;;0.95;0.55;;;10.40;78.80;;;;;;4973626;28;20454;-59
2022/06/05 10:22:56;;;;;;;2.05;0.77;;;10.40;79.10;;;;;;4969231;28;20384;-60
2022/06/05 10:25:38;;;;;;;1.23;0.73;;;10.30;78.90;;;;;;4967477;28;20113;-59
2022/06/05 10:28:17;;;;;;;1.75;0.75;;;10.30;79.10;;;;;;4975634;28;20145;-59
2022/06/05 10:31:04;;;;;;;1.42;0.60;;;10.30;79.40;;;;;;4976010;28;20051;-59
2022/06/05 10:33:40;;;;;;;0.93;0.60;;;10.20;79.70;;;;;;4981443;28;20034;-59
2022/06/05 10:36:26;;;;;;;2.58;0.77;;;10.20;79.70;;;;;;4968865;28;20025;-59
2022/06/05 10:39:10;;;;;;;2.10;0.70;;;10.10;79.90;;;;;;4969315;28;20119;-59
2022/06/05 10:41:57;;;;;;;1.90;1.00;;;10.10;80.20;;;;;;4968449;28;20037;-60
2022/06/05 10:44:39;;;;;;;2.22;0.70;;;10.00;80.60;;;;;;4927495;28;20030;-60
2022/06/05 10:47:29;;;;;;;0.90;0.52;;;9.90;80.80;;;;;;4963867;28;20105;-60
2022/06/05 10:50:10;;;;;;;1.20;0.70;;;9.80;80.90;;;;;;4983313;28;20047;-60
2022/06/05 10:53:01;;;;;;;2.33;0.90;;;9.70;81.40;;;;;;4988119;28;20022;-59
2022/06/05 10:55:34;;;;;;;1.35;0.65;;;9.70;81.80;;;;;;4990164;28;20811;-60
2022/06/05 10:58:26;;;;;;;1.65;0.80;;;9.60;82.30;;;;;;4990255;28;20033;-59
2022/06/05 11:00:57;;;;;;;1.67;1.13;;;9.50;82.30;;;;;;4989039;28;20022;-60
2022/06/05 11:03:42;;;;;;;1.20;1.08;;;9.50;82.80;;;;;;4989789;28;20023;-59
2022/06/05 11:06:14;;;;;;;1.85;0.80;;;9.40;83.00;;;;;;4978017;28;20069;-60
2022/06/05 11:08:56;;;;;;;1.45;0.88;;;9.40;83.40;;;;;;4990191;28;20038;-60
2022/06/05 11:14:27;;;;;;;1.75;0.60;;;9.30;83.70;;;;;;4981559;28;20041;-60
2022/06/05 11:17:30;;;;;;;1.23;0.65;;;9.30;84.10;;;;;;4989442;28;20032;-61
2022/06/05 11:20:07;;;;;;;3.53;1.00;;;9.20;83.30;;;;;;4949420;28;20042;-61
2022/06/05 11:22:37;;;;;;;2.05;0.90;;;9.20;84.50;;;;;;4989901;28;20109;-60
2022/06/05 11:25:20;;;;;;;1.73;0.65;;;9.20;83.10;;;;;;4989764;28;20038;-60
2022/06/05 11:27:54;;;;;;;1.60;0.70;;;9.10;83.40;;;;;;4989755;28;20026;-60
2022/06/05 11:30:39;;;;;;;1.15;0.65;;;9.10;84.60;;;;;;4988773;28;20026;-60
2022/06/05 11:33:23;;;;;;;;;;;9.00;84.00;;;;;;4989966;28;20038;-60
2022/06/05 11:35:53;;;;;;;1.73;0.80;;;9.00;85.40;;;;;;4989476;28;19955;-60
2022/06/05 11:38:29;;;;;;;1.63;0.82;;;9.00;85.60;;;;;;4988919;28;20022;-60
2022/06/05 11:40:59;;;;;;;2.10;0.73;;;8.90;84.60;;;;;;4988990;28;20022;-57
2022/06/05 11:43:32;;;;;;;1.45;0.75;;;8.90;84.50;;;;;;4984477;28;20072;-60
2022/06/05 11:46:48;;;;;;;1.83;0.82;;;8.90;83.60;;;;;;4989374;28;20029;-59
2022/06/05 11:49:40;;;;;;;1.65;0.95;;;8.80;83.20;;;;;;4895787;29;20124;-60
2022/06/05 11:52:27;;;;;;;1.95;0.70;;;8.70;85.40;;;;;;4887026;29;22005;-60
2022/06/05 11:55:15;;;;;;;1.92;0.70;;;8.70;84.90;;;;;;4956253;28;20082;-60
2022/06/05 11:57:59;;;;;;;3.13;0.98;;;8.70;84.80;;;;;;4963673;28;20077;-62
2022/06/05 12:00:44;;;;;;;1.27;0.88;;;8.70;85.20;;;;;;4971969;28;20027;-60
2022/06/05 12:03:46;;;;;;;2.25;0.90;;;8.70;85.60;;;;;;4968578;28;20678;-60
2022/06/05 12:06:32;;;;;;;1.40;0.70;;;8.80;86.10;;;;;;4968222;28;20611;-60
2022/06/05 12:09:03;;;;;;;2.00;0.93;;;8.70;84.90;;;;;;4970530;28;20045;-61
2022/06/05 12:11:50;;;;;;;3.78;0.95;;;8.60;85.70;;;;;;4969987;28;20030;-60
2022/06/05 12:14:50;;;;;;;4.60;1.05;;;8.60;86.40;;;;;;4984666;28;20062;-60
2022/06/05 12:17:32;;;;;;;2.75;1.02;;;8.70;86.40;;;;;;4978460;28;20027;-62
2022/06/05 12:20:24;;;;;;;3.22;1.30;;;8.70;86.20;;;;;;4973079;28;20067;-60
2022/06/05 12:23:09;;;;;;;2.55;0.82;;;8.70;86.10;;;;;;4980434;28;20030;-60
2022/06/05 12:25:43;;;;;;;3.20;0.85;;;8.70;85.50;;;;;;4976566;28;20086;-60
2022/06/05 12:28:18;;;;;;;3.28;0.80;;;8.80;86.10;;;;;;4972247;28;20078;-60
2022/06/05 12:31:05;;;;;;;1.10;0.50;;;8.90;85.30;;;;;;4971825;28;20023;-63
2022/06/05 12:33:55;;;;;;;0.73;0.38;;;9.00;84.70;;;;;;4969159;28;20125;-60
2022/06/05 12:36:39;;;;;;;1.02;0.60;;;9.00;84.60;;;;;;4970574;28;20077;-60
2022/06/05 12:39:44;;;;;;;1.50;0.63;;;9.10;84.50;;;;;;4970355;28;20118;-60
2022/06/05 12:42:22;;;;;;;1.02;0.70;;;9.10;83.60;;;;;;4961379;28;20027;-60
2022/06/05 12:44:54;;;;;;;2.47;0.52;;;9.20;83.50;;;;;;4971920;28;20118;-60
2022/06/05 12:48:12;;;;;;;1.65;0.60;;;9.20;83.80;;;;;;4977873;28;20022;-60
2022/06/05 12:51:06;;;;;;;1.08;0.50;;;9.30;83.40;;;;;;4949659;28;20058;-60
2022/06/05 12:54:05;;;;;;;0.75;0.40;;;9.40;82.70;;;;;;4971358;28;20118;-60
2022/06/05 12:57:05;;;;;;;0.45;0.40;;;9.50;82.80;;;;;;4984115;28;20041;-60
2022/06/05 12:59:46;;;;;;;0.70;0.40;;;9.50;82.70;;;;;;4968268;28;20085;-60
2022/06/05 13:02:25;;;;;;;1.65;0.50;;;9.50;83.10;;;;;;4985548;28;20116;-60
2022/06/05 13:05:19;;;;;;;0.65;0.50;;;9.50;83.00;;;;;;4984495;28;20663;-60
2022/06/05 13:08:01;;;;;;;1.85;0.45;;;9.50;82.90;;;;;;4973994;28;20169;-60
2022/06/05 13:10:48;;;;;;;1.02;0.50;;;9.40;83.20;;;;;;4965386;28;20081;-60
2022/06/05 13:13:40;;;;;;;0.47;0.30;;;9.40;83.00;;;;;;4972540;28;20043;-61
2022/06/05 13:16:17;;;;;;;1.00;0.50;;;9.40;83.10;;;;;;4969867;28;20084;-60
2022/06/05 13:19:18;;;;;;;2.78;0.65;;;9.50;83.20;;;;;;4969890;28;20035;-60
2022/06/05 13:22:15;;;;;;;1.35;0.60;;;9.60;82.90;;;;;;4969004;28;20302;-61
2022/06/05 13:24:58;;;;;;;1.48;0.80;;;9.60;82.90;;;;;;4970213;28;20042;-60
2022/06/05 13:27:47;;;;;;;1.27;0.68;;;9.60;82.50;;;;;;4969683;28;20026;-59
2022/06/05 13:30:18;;;;;;;0.65;0.40;;;9.50;82.80;;;;;;4966637;28;20929;-59
2022/06/05 13:33:13;;;;;;;0.52;0.38;;;9.60;82.70;;;;;;4970029;28;20038;-60
2022/06/05 13:36:03;;;;;;;1.30;0.70;;;9.50;83.10;;;;;;4970308;28;20141;-60
2022/06/05 13:38:45;;;;;;;4.25;0.50;;;9.40;83.20;;;;;;4970136;28;20272;-59
2022/06/05 13:41:23;;;;;;;3.80;0.65;;;9.40;83.50;;;;;;4969965;28;20533;-60
2022/06/05 13:44:25;;;;;;;1.23;0.50;;;9.30;83.70;;;;;;4970275;28;20038;-59
2022/06/05 13:46:52;;;;;;;0.55;0.50;;;9.30;84.10;;;;;;4971320;28;20027;-59
2022/06/05 13:49:40;;;;;;;2.20;0.70;;;9.30;84.20;;;;;;5021011;28;20041;-60
2022/06/05 13:52:51;;;;;;;2.22;0.60;;;9.30;84.00;;;;;;5026426;28;20557;-60
2022/06/05 13:55:36;;;;;;;5.80;1.00;;;9.30;84.60;;;;;;5004206;28;20479;-60
2022/06/05 13:58:16;;;;;;;5.55;2.65;;;9.20;84.60;;;;;;5000915;28;20034;-60
2022/06/05 14:00:48;;;;;;;6.35;2.42;;;9.30;84.90;;;;;;4996172;28;20149;-59